Pagrindinis puslapis
METAR-TAF:

METAR-TAF

Oro uostai :

Hope, Britų Kolumbija, Kanada

platuma: 49-22N, ilguma: 121-29W, Aukštis: 39 m

Dabartinis oras

Ataskaita buvo paskelbta 51 minutes, ne 06:00 UTC
Vėjas 2 kt nuo kintamojo kryptimis
Temperatūra 6°C
Drėgmė 93%
Slėgis 1027 hPa
Matomumas: 14.5 km
Mažai debesys ne aukštis 5000 ft
Apsiniaukę ne aukštis 7000 ft

METAR: CYHE 280600Z AUTO VRB02KT 9SM FEW050 OVC070 06/05 A3032 RMK SLP271

Laikas: 22:51 (06:51 UTC)


TAF: trūkstamas

Orai ataskaitas ir orų prognozės (METAR, TAF).

turimą stotys yra geltonos ir raudonos taškus žemėlapyje.

Perkelti pele per norėdami pamatyti stoties vardą.

Tada spustelėkite, norėdami matyti oro stebėjimo ir prognozės.

Norėdami pakeisti žemėlapį: spustelėkite ant žalios mygtukų su juodo kryžiaus žemyn,; žalią mygtuką su brūkšneliu, jei norite nutolinti; arba žalių rodyklių gretimoms žemėlapius.


METAR-TAF: